createdAt,value
2018-01-14T00:02:07.725Z,35.40
2018-01-14T00:04:34.534Z,34.33
2018-01-14T00:07:01.323Z,31.30
2018-01-14T00:09:28.717Z,38.53
2018-01-14T00:11:55.508Z,35.27
2018-01-14T00:14:23.061Z,36.43
2018-01-14T00:16:49.885Z,33.47
2018-01-14T00:19:16.469Z,38.70
2018-01-14T00:21:43.926Z,32.13
2018-01-14T00:24:10.664Z,32.30
2018-01-14T00:26:37.376Z,45.20
2018-01-14T00:29:04.368Z,33.30
2018-01-14T00:31:31.885Z,34.43
2018-01-14T00:33:58.613Z,28.13
2018-01-14T00:36:25.176Z,28.23
2018-01-14T00:38:52.032Z,32.30
2018-01-14T00:41:19.112Z,27.13
2018-01-14T00:43:46.512Z,34.97
2018-01-14T00:46:13.198Z,32.63
2018-01-14T00:48:40.159Z,24.43
2018-01-14T00:51:07.016Z,29.80
2018-01-14T00:53:33.968Z,30.50
2018-01-14T00:56:01.725Z,36.23
2018-01-14T00:58:28.688Z,29.70
2018-01-14T01:00:56.016Z,33.87
2018-01-14T01:03:22.792Z,25.90
2018-01-14T01:05:51.072Z,30.80
2018-01-14T01:08:18.639Z,25.60
2018-01-14T01:10:46.080Z,35.03
2018-01-14T01:13:12.956Z,29.20
2018-01-14T01:15:40.496Z,34.50
2018-01-14T01:18:07.877Z,36.00
2018-01-14T01:20:35.440Z,37.97
2018-01-14T01:23:02.912Z,37.13
2018-01-14T01:25:30.448Z,35.67
2018-01-14T01:27:57.192Z,35.30
2018-01-14T01:30:24.172Z,34.60
2018-01-14T01:32:51.733Z,31.97
2018-01-14T01:35:19.054Z,34.43
2018-01-14T01:37:45.933Z,33.03
2018-01-14T01:40:13.352Z,33.77
2018-01-14T01:42:40.136Z,33.13
2018-01-14T01:45:06.762Z,35.20
2018-01-14T01:47:33.536Z,34.10
2018-01-14T01:50:01.196Z,32.23
2018-01-14T01:52:28.520Z,33.20
2018-01-14T01:54:55.402Z,39.53
2018-01-14T01:57:22.847Z,30.83
2018-01-14T01:59:49.800Z,32.07
2018-01-14T02:02:16.572Z,32.13
2018-01-14T02:04:43.893Z,32.23
2018-01-14T02:07:10.669Z,33.73
2018-01-14T02:09:38.136Z,31.80
2018-01-14T02:12:05.470Z,37.00
2018-01-14T02:14:32.444Z,31.77
2018-01-14T02:16:59.780Z,34.87
2018-01-14T02:19:26.439Z,35.97
2018-01-14T02:21:53.892Z,34.80
2018-01-14T02:24:20.616Z,36.17
2018-01-14T02:26:48.440Z,34.53
2018-01-14T02:29:15.136Z,31.03
2018-01-14T02:31:41.772Z,35.63
2018-01-14T02:34:08.562Z,33.40
2018-01-14T02:36:35.935Z,33.00
2018-01-14T02:39:03.173Z,32.23
2018-01-14T02:41:30.746Z,31.00
2018-01-14T02:43:58.348Z,32.50
2018-01-14T02:46:24.948Z,40.37
2018-01-14T02:48:52.614Z,37.60
2018-01-14T02:51:20.417Z,33.10
2018-01-14T02:53:47.172Z,37.53
2018-01-14T02:56:13.976Z,36.83
2018-01-14T02:58:41.541Z,33.10
2018-01-14T03:01:09.104Z,33.43
2018-01-14T03:03:36.781Z,26.40
2018-01-14T03:06:04.219Z,29.40
2018-01-14T03:08:31.575Z,38.67
2018-01-14T03:10:58.208Z,28.73
2018-01-14T03:13:24.983Z,34.10
2018-01-14T03:15:52.420Z,27.47
2018-01-14T03:18:19.303Z,33.73
2018-01-14T03:20:46.858Z,32.07
2018-01-14T03:23:14.376Z,27.10
2018-01-14T03:25:41.272Z,32.73
2018-01-14T03:28:08.822Z,37.23
2018-01-14T03:30:36.177Z,31.67
2018-01-14T03:33:02.924Z,38.47
2018-01-14T03:35:29.563Z,33.30
2018-01-14T03:37:56.323Z,27.13
2018-01-14T03:40:23.797Z,33.40
2018-01-14T03:42:51.150Z,29.97
2018-01-14T03:45:18.527Z,35.20
2018-01-14T03:47:47.030Z,33.23
2018-01-14T03:50:13.844Z,31.37
2018-01-14T03:52:41.285Z,27.27
2018-01-14T03:55:08.052Z,24.20
2018-01-14T03:57:35.631Z,32.30
2018-01-14T04:00:03.088Z,28.27
2018-01-14T04:02:30.768Z,28.90
2018-01-14T04:04:57.508Z,32.23
2018-01-14T04:07:24.439Z,30.43
2018-01-14T04:09:51.152Z,39.43
2018-01-14T04:12:17.950Z,29.97
2018-01-14T04:14:44.631Z,29.93
2018-01-14T04:17:11.344Z,37.43
2018-01-14T04:19:38.255Z,35.60
2018-01-14T04:22:05.007Z,31.67
2018-01-14T04:24:31.656Z,30.73
2018-01-14T04:26:58.999Z,30.47
2018-01-14T04:29:25.589Z,33.93
2018-01-14T04:31:52.420Z,32.43
2018-01-14T04:34:19.967Z,35.10
2018-01-14T04:36:47.394Z,34.90
2018-01-14T04:39:14.200Z,32.47
2018-01-14T04:41:41.674Z,24.63
2018-01-14T04:44:08.297Z,28.90
2018-01-14T04:46:35.965Z,31.77
2018-01-14T04:49:03.727Z,29.20
2018-01-14T04:51:31.068Z,27.10
2018-01-14T04:53:58.573Z,27.83
2018-01-14T04:56:25.184Z,32.97
2018-01-14T04:58:52.070Z,30.53
2018-01-14T05:01:18.692Z,28.03
2018-01-14T05:03:46.258Z,22.00
2018-01-14T05:06:12.985Z,30.47
2018-01-14T05:08:40.468Z,21.73
2018-01-14T05:11:08.538Z,18.40
2018-01-14T05:13:35.860Z,19.70
2018-01-14T05:16:02.583Z,31.00
2018-01-14T05:18:29.362Z,31.77
2018-01-14T05:20:56.056Z,30.70
2018-01-14T05:23:22.978Z,29.60
2018-01-14T05:25:50.540Z,29.90
2018-01-14T05:28:17.863Z,32.23
2018-01-14T05:30:44.639Z,30.17
2018-01-14T05:33:12.001Z,29.37
2018-01-14T05:35:39.568Z,24.83
2018-01-14T05:38:07.145Z,29.50
2018-01-14T05:40:34.656Z,26.63
2018-01-14T05:43:01.752Z,30.13
2018-01-14T05:45:29.285Z,28.50
2018-01-14T05:47:56.104Z,33.37
2018-01-14T05:50:22.688Z,29.17
2018-01-14T05:52:49.517Z,30.73
2018-01-14T05:55:16.370Z,27.67
2018-01-14T05:57:43.144Z,29.93
2018-01-14T06:00:09.925Z,31.80
2018-01-14T06:02:36.528Z,35.13
2018-01-14T06:05:03.972Z,33.57
2018-01-14T06:07:30.740Z,29.50
2018-01-14T06:09:57.511Z,35.90
2018-01-14T06:12:24.191Z,39.53
2018-01-14T06:14:50.882Z,31.30
2018-01-14T06:17:18.312Z,34.63
2018-01-14T06:19:45.051Z,36.37
2018-01-14T06:22:12.760Z,35.60
2018-01-14T06:24:40.068Z,30.90
2018-01-14T06:27:06.752Z,28.20
2018-01-14T06:29:34.271Z,42.40
2018-01-14T06:32:00.928Z,39.77
2018-01-14T06:34:27.824Z,37.07
2018-01-14T06:36:55.251Z,35.63
2018-01-14T06:39:21.991Z,36.63
2018-01-14T06:41:48.624Z,29.67
2018-01-14T06:44:15.386Z,40.50
2018-01-14T06:46:42.193Z,36.47
2018-01-14T06:49:09.023Z,32.53
2018-01-14T06:51:35.933Z,28.23
2018-01-14T06:54:02.613Z,31.63
2018-01-14T06:56:29.960Z,26.03
2018-01-14T06:58:57.290Z,36.70
2018-01-14T07:01:24.656Z,36.33
2018-01-14T07:03:51.496Z,25.37
2018-01-14T07:06:18.576Z,32.17
2018-01-14T07:08:45.920Z,28.20
2018-01-14T07:11:12.784Z,33.83
2018-01-14T07:13:40.252Z,31.03
2018-01-14T07:16:07.757Z,29.10
2018-01-14T07:18:34.692Z,35.90
2018-01-14T07:21:01.406Z,27.80
2018-01-14T07:23:28.143Z,30.20
2018-01-14T07:25:54.766Z,33.63
2018-01-14T07:28:21.560Z,35.97
2018-01-14T07:30:49.004Z,32.97
2018-01-14T07:33:16.622Z,34.77
2018-01-14T07:35:43.318Z,33.93
2018-01-14T07:38:10.846Z,30.97
2018-01-14T07:40:37.456Z,34.97
2018-01-14T07:43:05.170Z,39.60
2018-01-14T07:45:32.651Z,44.63
2018-01-14T07:47:59.954Z,44.33
2018-01-14T07:50:26.743Z,34.70
2018-01-14T07:52:53.504Z,30.77
2018-01-14T07:55:20.942Z,42.33
2018-01-14T07:57:48.024Z,29.27
2018-01-14T08:00:15.459Z,41.70
2018-01-14T08:02:42.224Z,31.00
2018-01-14T08:05:11.333Z,32.70
2018-01-14T08:07:38.752Z,30.53
2018-01-14T08:10:05.411Z,32.00
2018-01-14T08:12:32.272Z,29.00
2018-01-14T08:14:59.718Z,29.37
2018-01-14T08:17:26.693Z,30.57
2018-01-14T08:19:54.626Z,34.10
2018-01-14T08:22:21.264Z,32.37
2018-01-14T08:24:47.936Z,33.00
2018-01-14T08:27:14.578Z,38.93
2018-01-14T08:29:41.551Z,59.53
2018-01-14T08:32:09.113Z,57.93
2018-01-14T08:34:36.508Z,49.33
2018-01-14T08:37:03.212Z,32.47
2018-01-14T08:39:29.766Z,35.77
2018-01-14T08:41:57.183Z,35.40
2018-01-14T08:44:23.825Z,37.23
2018-01-14T08:46:50.608Z,37.47
2018-01-14T08:49:18.062Z,28.33
2018-01-14T08:51:46.135Z,35.63
2018-01-14T08:54:12.880Z,38.80
2018-01-14T08:56:41.069Z,37.20
2018-01-14T08:59:07.984Z,39.33
2018-01-14T09:01:52.019Z,32.10
2018-01-14T09:04:18.755Z,39.83
2018-01-14T09:06:45.431Z,34.20
2018-01-14T09:09:12.024Z,34.30
2018-01-14T09:11:39.661Z,34.97
2018-01-14T09:14:07.212Z,32.73
2018-01-14T09:16:35.790Z,36.87
2018-01-14T09:19:02.384Z,34.07
2018-01-14T09:21:28.956Z,37.00
2018-01-14T09:23:57.477Z,35.60
2018-01-14T09:26:24.925Z,43.93
2018-01-14T09:28:51.779Z,38.13
2018-01-14T09:31:19.956Z,34.27
2018-01-14T09:33:47.625Z,35.50
2018-01-14T09:36:15.928Z,30.60
2018-01-14T09:38:43.344Z,37.10
2018-01-14T09:41:10.232Z,35.93
2018-01-14T09:43:37.802Z,37.37
2018-01-14T09:46:05.283Z,30.60
2018-01-14T09:48:32.125Z,32.63
2018-01-14T09:50:58.736Z,31.00
2018-01-14T09:53:27.275Z,32.67
2018-01-14T09:55:53.913Z,28.33
2018-01-14T09:58:20.928Z,36.60
2018-01-14T10:00:48.272Z,46.13
2018-01-14T10:03:14.929Z,77.17
2018-01-14T10:05:41.632Z,36.07
2018-01-14T10:08:08.937Z,36.63
2018-01-14T10:10:36.507Z,35.13
2018-01-14T10:13:03.864Z,37.93
2018-01-14T10:15:31.287Z,31.00
2018-01-14T10:17:57.942Z,33.10
2018-01-14T10:20:25.251Z,37.70
2018-01-14T10:22:52.048Z,31.10
2018-01-14T10:25:18.696Z,36.23
2018-01-14T10:27:45.349Z,28.50
2018-01-14T10:30:12.112Z,32.20
2018-01-14T10:32:39.558Z,39.50
2018-01-14T10:35:06.322Z,30.60
2018-01-14T10:37:33.869Z,29.97
2018-01-14T10:40:00.542Z,20.00
2018-01-14T10:42:28.336Z,22.13
2018-01-14T10:44:55.017Z,27.17
2018-01-14T10:47:21.674Z,26.43
2018-01-14T10:49:48.421Z,29.33
2018-01-14T10:52:15.992Z,24.17
2018-01-14T10:54:43.696Z,23.93
2018-01-14T10:57:12.544Z,22.40
2018-01-14T10:59:39.868Z,40.93
2018-01-14T11:02:06.632Z,26.33
2018-01-14T11:04:33.278Z,28.73
2018-01-14T11:07:00.045Z,24.83
2018-01-14T11:09:27.592Z,28.57
2018-01-14T11:11:54.150Z,91.60
2018-01-14T11:14:21.899Z,107.90
2018-01-14T11:16:48.586Z,32.17
2018-01-14T11:19:15.900Z,30.57
2018-01-14T11:21:42.649Z,24.93
2018-01-14T11:24:10.105Z,26.20
2018-01-14T11:26:37.088Z,19.87
2018-01-14T11:29:04.520Z,20.00
2018-01-14T11:31:31.168Z,20.63
2018-01-14T11:33:59.463Z,24.00
2018-01-14T11:36:26.096Z,26.83
2018-01-14T11:38:53.605Z,26.23
2018-01-14T11:41:20.304Z,23.80
2018-01-14T11:43:46.934Z,26.70
2018-01-14T11:46:13.581Z,23.93
2018-01-14T11:48:40.700Z,25.70
2018-01-14T11:51:07.704Z,24.30
2018-01-14T11:53:34.448Z,22.73
2018-01-14T11:56:01.401Z,23.40
2018-01-14T11:58:28.035Z,25.83
2018-01-14T12:00:54.910Z,22.13
2018-01-14T12:03:22.678Z,20.23
2018-01-14T12:05:49.992Z,21.37
2018-01-14T12:08:16.765Z,21.63
2018-01-14T12:10:43.394Z,23.73
2018-01-14T12:13:09.989Z,21.97
2018-01-14T12:15:37.464Z,22.47
2018-01-14T12:18:04.032Z,24.43
2018-01-14T12:20:30.701Z,23.73
2018-01-14T12:22:57.572Z,19.30
2018-01-14T12:25:25.132Z,23.87
2018-01-14T12:27:52.560Z,25.07
2018-01-14T12:30:19.192Z,20.10
2018-01-14T12:32:58.300Z,26.87
2018-01-14T12:35:26.080Z,23.30
2018-01-14T12:37:52.762Z,23.40
2018-01-14T12:40:19.624Z,22.80
2018-01-14T12:42:47.163Z,25.87
2018-01-14T12:45:14.525Z,23.03
2018-01-14T12:47:42.701Z,26.63
2018-01-14T12:50:10.184Z,22.50
2018-01-14T12:52:37.888Z,20.93
2018-01-14T12:55:04.672Z,21.17
2018-01-14T12:57:32.980Z,19.97
2018-01-14T13:00:00.416Z,19.87
2018-01-14T13:02:27.779Z,20.73
2018-01-14T13:04:54.760Z,20.80
2018-01-14T13:07:22.218Z,20.53
2018-01-14T13:09:49.676Z,18.80
2018-01-14T13:12:17.144Z,17.07
2018-01-14T13:14:44.591Z,17.87
2018-01-14T13:17:11.544Z,20.53
2018-01-14T13:19:39.116Z,27.70
2018-01-14T13:22:06.575Z,20.07
2018-01-14T13:24:33.915Z,21.90
2018-01-14T13:27:01.394Z,18.03
2018-01-14T13:29:28.786Z,17.60
2018-01-14T13:31:55.463Z,20.50
2018-01-14T13:34:22.126Z,17.47
2018-01-14T13:36:49.653Z,14.70
2018-01-14T13:39:16.348Z,18.93
2018-01-14T13:41:44.276Z,25.93
2018-01-14T13:44:10.970Z,18.13
2018-01-14T13:46:38.354Z,16.10
2018-01-14T13:49:05.042Z,21.27
2018-01-14T13:51:31.830Z,18.73
2018-01-14T13:53:59.696Z,15.73
2018-01-14T13:56:27.141Z,17.73
2018-01-14T13:58:54.576Z,16.93
2018-01-14T14:01:21.156Z,18.90
2018-01-14T14:03:48.608Z,15.30
2018-01-14T14:06:15.779Z,20.20
2018-01-14T14:08:43.234Z,19.93
2018-01-14T14:11:10.832Z,19.53
2018-01-14T14:13:37.525Z,19.90
2018-01-14T14:16:04.988Z,21.03
2018-01-14T14:18:31.856Z,21.10
2018-01-14T14:20:59.400Z,23.07
2018-01-14T14:23:27.097Z,32.30
2018-01-14T14:25:54.632Z,25.33
2018-01-14T14:28:22.106Z,21.80
2018-01-14T14:30:49.067Z,21.63
2018-01-14T14:33:16.532Z,16.83
2018-01-14T14:35:43.989Z,19.40
2018-01-14T14:38:11.332Z,20.27
2018-01-14T14:40:38.790Z,21.93
2018-01-14T14:43:05.762Z,19.10
2018-01-14T14:45:33.136Z,17.50
2018-01-14T14:48:00.086Z,19.97
2018-01-14T14:50:27.856Z,20.83
2018-01-14T14:52:55.486Z,24.13
2018-01-14T14:55:22.360Z,17.67
2018-01-14T14:57:49.912Z,18.80
2018-01-14T15:00:16.601Z,19.80
2018-01-14T15:02:43.297Z,20.80
2018-01-14T15:05:10.633Z,19.47
2018-01-14T15:07:37.833Z,22.07
2018-01-14T15:10:05.390Z,16.13
2018-01-14T15:12:32.878Z,22.60
2018-01-14T15:14:59.816Z,22.30
2018-01-14T15:17:27.248Z,19.53
2018-01-14T15:19:54.005Z,17.80
2018-01-14T15:22:20.616Z,20.90
2018-01-14T15:24:47.229Z,17.97
2018-01-14T15:27:14.352Z,15.07
2018-01-14T15:29:41.687Z,18.67
2018-01-14T15:32:08.464Z,20.30
2018-01-14T15:34:35.895Z,28.37
2018-01-14T15:37:02.576Z,25.40
2018-01-14T15:39:30.444Z,26.20
2018-01-14T15:41:57.892Z,22.27
2018-01-14T15:44:24.764Z,19.23
2018-01-14T15:46:51.698Z,24.07
2018-01-14T15:49:19.045Z,20.77
2018-01-14T15:51:46.624Z,20.63
2018-01-14T15:54:14.061Z,19.10
2018-01-14T15:56:40.704Z,28.83
2018-01-14T15:59:07.323Z,22.13
2018-01-14T16:01:34.093Z,21.93
2018-01-14T16:04:01.377Z,21.57
2018-01-14T16:06:28.803Z,17.43
2018-01-14T16:08:55.541Z,19.07
2018-01-14T16:11:22.205Z,21.00
2018-01-14T16:13:48.847Z,21.33
2018-01-14T16:16:16.465Z,19.50
2018-01-14T16:18:43.240Z,22.10
2018-01-14T16:21:10.037Z,20.37
2018-01-14T16:23:38.601Z,18.40
2018-01-14T16:26:07.592Z,21.13
2018-01-14T16:28:36.309Z,23.80
2018-01-14T16:31:03.964Z,17.73
2018-01-14T16:33:31.293Z,20.83
2018-01-14T16:35:58.776Z,50.60
2018-01-14T16:38:25.533Z,62.23
2018-01-14T16:40:53.304Z,64.67
2018-01-14T16:43:20.749Z,39.93
2018-01-14T16:45:48.528Z,32.57
2018-01-14T16:48:15.261Z,30.97
2018-01-14T16:50:42.141Z,26.93
2018-01-14T16:53:09.570Z,22.50
2018-01-14T16:55:36.327Z,21.77
2018-01-14T16:58:03.763Z,68.67
2018-01-14T17:00:30.662Z,60.27
2018-01-14T17:02:58.024Z,28.50
2018-01-14T17:05:25.282Z,44.90
2018-01-14T17:07:51.888Z,26.97
2018-01-14T17:10:19.252Z,30.73
2018-01-14T17:12:45.976Z,22.00
2018-01-14T17:15:12.532Z,23.70
2018-01-14T17:17:39.184Z,15.33
2018-01-14T17:20:06.309Z,18.43
2018-01-14T17:22:33.048Z,21.17
2018-01-14T17:24:59.885Z,17.97
2018-01-14T17:27:26.511Z,16.40
2018-01-14T17:29:53.933Z,19.33
2018-01-14T17:32:20.761Z,16.73
2018-01-14T17:34:47.453Z,15.07
2018-01-14T17:37:15.128Z,14.50
2018-01-14T17:39:41.904Z,16.50
2018-01-14T17:42:09.733Z,16.87
2018-01-14T17:44:37.267Z,14.33
2018-01-14T17:47:04.100Z,9.53
2018-01-14T17:49:30.880Z,16.83
2018-01-14T17:51:58.334Z,9.57
2018-01-14T17:54:25.088Z,12.57
2018-01-14T17:56:52.469Z,15.80
2018-01-14T17:59:19.285Z,13.00
2018-01-14T18:01:46.765Z,19.17
2018-01-14T18:04:14.173Z,13.07
2018-01-14T18:06:40.845Z,13.63
2018-01-14T18:09:07.497Z,7.90
2018-01-14T18:11:34.136Z,13.57
2018-01-14T18:14:00.861Z,8.53
2018-01-14T18:16:27.549Z,13.80
2018-01-14T18:18:55.095Z,13.57
2018-01-14T18:21:21.773Z,16.07
2018-01-14T18:23:48.475Z,13.37
2018-01-14T18:26:15.117Z,12.03
2018-01-14T18:28:41.870Z,14.43
2018-01-14T18:31:10.122Z,13.70
2018-01-14T18:33:37.000Z,12.93
2018-01-14T18:36:04.330Z,9.30
2018-01-14T18:38:31.032Z,10.00
2018-01-14T18:40:58.781Z,13.57
2018-01-14T18:43:25.520Z,11.40
2018-01-14T18:45:57.045Z,9.17
2018-01-14T18:48:23.773Z,12.97
2018-01-14T18:50:50.450Z,10.33
2018-01-14T18:53:17.845Z,9.73
2018-01-14T18:55:45.287Z,15.83
2018-01-14T18:58:11.995Z,10.43
2018-01-14T19:00:38.685Z,9.10
2018-01-14T19:03:05.452Z,11.10
2018-01-14T19:05:32.182Z,10.80
2018-01-14T19:07:59.544Z,11.20
2018-01-14T19:10:26.912Z,9.47
2018-01-14T19:12:54.352Z,11.47
2018-01-14T19:15:20.986Z,8.20
2018-01-14T19:17:47.705Z,6.90
2018-01-14T19:20:14.295Z,9.43
2018-01-14T19:22:41.848Z,7.60
2018-01-14T19:25:08.578Z,9.60
2018-01-14T19:27:35.224Z,10.73
2018-01-14T19:30:01.984Z,10.90
2018-01-14T19:32:28.612Z,11.67
2018-01-14T19:34:55.493Z,11.23
2018-01-14T19:37:22.989Z,13.40
2018-01-14T19:39:49.686Z,9.33
2018-01-14T19:42:16.349Z,8.13
2018-01-14T19:44:43.895Z,9.10
2018-01-14T19:47:11.382Z,8.50
2018-01-14T19:49:38.419Z,11.40
2018-01-14T19:52:05.963Z,8.20
2018-01-14T19:54:32.779Z,9.57
2018-01-14T19:56:59.452Z,12.10
2018-01-14T19:59:26.247Z,9.23
2018-01-14T20:01:52.981Z,9.70
2018-01-14T20:04:19.892Z,12.47
2018-01-14T20:06:46.582Z,8.20
2018-01-14T20:09:13.506Z,9.23
2018-01-14T20:11:40.957Z,9.70
2018-01-14T20:14:07.594Z,8.13
2018-01-14T20:16:34.628Z,12.50
2018-01-14T20:19:01.411Z,10.27
2018-01-14T20:21:28.787Z,10.20
2018-01-14T20:23:55.596Z,12.17
2018-01-14T20:26:23.082Z,11.77
2018-01-14T20:28:50.636Z,17.07
2018-01-14T20:31:17.421Z,14.17
2018-01-14T20:33:43.998Z,15.27
2018-01-14T20:36:10.730Z,18.13
2018-01-14T20:38:37.424Z,20.17
2018-01-14T20:41:05.043Z,13.83
2018-01-14T20:43:31.824Z,16.97
2018-01-14T20:45:58.364Z,11.20
2018-01-14T20:48:25.180Z,12.47
2018-01-14T20:50:51.872Z,9.50
2018-01-14T20:53:19.532Z,12.90
2018-01-14T20:55:46.862Z,13.90
2018-01-14T20:58:13.740Z,11.73
2018-01-14T21:00:41.314Z,17.33
2018-01-14T21:03:08.648Z,20.23
2018-01-14T21:05:35.302Z,19.47
2018-01-14T21:08:02.817Z,19.20
2018-01-14T21:10:29.581Z,15.00
2018-01-14T21:12:56.562Z,27.03
2018-01-14T21:15:23.232Z,21.20
2018-01-14T21:17:50.795Z,20.87
2018-01-14T21:20:19.166Z,20.60
2018-01-14T21:22:46.561Z,23.90
2018-01-14T21:25:13.307Z,15.80
2018-01-14T21:27:39.940Z,20.87
2018-01-14T21:30:06.686Z,22.30
2018-01-14T21:32:33.500Z,19.90
2018-01-14T21:35:00.439Z,18.10
2018-01-14T21:37:28.424Z,20.00
2018-01-14T21:39:55.132Z,18.90
2018-01-14T21:42:22.610Z,20.67
2018-01-14T21:44:49.368Z,19.70
2018-01-14T21:47:16.108Z,19.30
2018-01-14T21:49:42.813Z,25.27
2018-01-14T21:52:09.624Z,21.10
2018-01-14T21:54:37.051Z,16.73
2018-01-14T21:57:03.912Z,23.47
2018-01-14T21:59:31.014Z,16.00
2018-01-14T22:01:57.939Z,22.40
2018-01-14T22:04:25.362Z,20.13
2018-01-14T22:06:52.355Z,22.17
2018-01-14T22:09:19.782Z,18.13
2018-01-14T22:11:46.424Z,20.63
2018-01-14T22:14:13.032Z,21.40
2018-01-14T22:16:39.744Z,16.87
2018-01-14T22:19:07.170Z,21.10
2018-01-14T22:21:34.135Z,18.50
2018-01-14T22:24:00.782Z,21.33
2018-01-14T22:26:27.440Z,20.93
2018-01-14T22:28:54.756Z,22.10
2018-01-14T22:31:21.542Z,19.87
2018-01-14T22:33:49.219Z,22.23
2018-01-14T22:36:16.646Z,19.20
2018-01-14T22:38:43.357Z,21.40
2018-01-14T22:41:10.195Z,18.37
2018-01-14T22:43:36.876Z,18.70
2018-01-14T22:46:03.813Z,16.40
2018-01-14T22:48:30.430Z,13.17
2018-01-14T22:50:57.190Z,16.37
2018-01-14T22:53:23.862Z,25.17
2018-01-14T22:55:50.786Z,16.00
2018-01-14T22:58:17.527Z,16.50
2018-01-14T23:00:44.349Z,14.70
2018-01-14T23:03:11.762Z,16.73
2018-01-14T23:05:38.576Z,14.90
2018-01-14T23:08:05.242Z,15.17
2018-01-14T23:10:33.282Z,15.73
2018-01-14T23:13:00.254Z,15.50
2018-01-14T23:15:26.942Z,11.53
2018-01-14T23:17:53.869Z,13.50
2018-01-14T23:20:20.533Z,11.63
2018-01-14T23:22:47.279Z,12.60
2018-01-14T23:25:13.912Z,15.40
2018-01-14T23:27:40.655Z,14.53
2018-01-14T23:30:07.675Z,12.60
2018-01-14T23:32:34.388Z,15.50
2018-01-14T23:35:01.927Z,15.67
2018-01-14T23:37:28.647Z,13.23
2018-01-14T23:39:55.347Z,12.30
2018-01-14T23:42:23.103Z,14.03
2018-01-14T23:44:49.782Z,13.70
2018-01-14T23:47:16.597Z,14.33
2018-01-14T23:49:43.993Z,14.40
2018-01-14T23:52:10.652Z,16.03
2018-01-14T23:54:37.551Z,14.33
2018-01-14T23:57:04.898Z,11.33
2018-01-14T23:59:31.503Z,9.53
